Time;durP1;ratioP1;P1;durP2;ratioP2;P2;SDS_P1;SDS_P2;PMS_P1;PMS_P2;Temp;Humidity;BMP_temperature;BMP_pressure;BME280_temperature;BME280_humidity;BME280_pressure;Samples;Min_cycle;Max_cycle;Signal;HPM_P1;HPM_P2
2023/07/25 00:00:27;;;;;;;11.93;6.32;;;;;;;23.24;85.83;100306.59;4937870;29;20048;-79
2023/07/25 00:02:52;;;;;;;11.55;5.55;;;;;;;23.15;86.41;100307.88;4937669;29;20492;-78
2023/07/25 00:05:18;;;;;;;9.02;5.93;;;;;;;23.23;86.13;100304.94;4937195;29;20049;-79
2023/07/25 00:07:43;;;;;;;14.27;7.20;;;;;;;23.16;86.48;100304.94;4937909;29;20043;-79
2023/07/25 00:10:09;;;;;;;12.18;6.25;;;;;;;23.15;87.06;100313.38;4937401;29;20036;-79
2023/07/25 00:12:35;;;;;;;16.48;6.28;;;;;;;23.15;87.15;100302.41;4936957;29;20023;-78
2023/07/25 00:15:01;;;;;;;7.75;5.60;;;;;;;23.13;87.40;100293.53;4937239;29;20043;-79
2023/07/25 00:17:27;;;;;;;9.32;5.80;;;;;;;23.11;87.59;100287.44;4937119;29;20031;-79
2023/07/25 00:19:52;;;;;;;11.02;5.95;;;;;;;23.10;87.67;100280.25;4937221;29;20024;-79
2023/07/25 00:22:18;;;;;;;8.13;5.70;;;;;;;23.18;88.02;100288.25;4937084;29;20028;-79
2023/07/25 00:24:43;;;;;;;9.10;6.20;;;;;;;23.14;88.76;100279.63;4937074;29;20054;-79
2023/07/25 00:27:09;;;;;;;17.17;6.22;;;;;;;23.18;88.67;100297.31;4936237;29;20031;-79
2023/07/25 00:29:34;;;;;;;10.20;5.68;;;;;;;23.20;88.50;100295.25;4935554;29;20028;-80
2023/07/25 00:32:00;;;;;;;16.27;7.25;;;;;;;23.15;89.21;100277.69;4936880;29;20106;-81
2023/07/25 00:34:25;;;;;;;13.27;5.97;;;;;;;23.11;89.15;100265.50;4936136;29;20086;-79
2023/07/25 00:36:51;;;;;;;9.40;6.13;;;;;;;23.20;88.76;100267.78;4936290;29;20031;-79
2023/07/25 00:39:17;;;;;;;13.95;6.70;;;;;;;23.27;89.36;100273.28;4936191;29;20036;-80
2023/07/25 00:41:42;;;;;;;10.98;6.07;;;;;;;23.33;88.00;100267.72;4936929;29;20106;-79
2023/07/25 00:44:08;;;;;;;15.02;6.85;;;;;;;23.40;88.04;100266.91;4937071;29;20066;-80
2023/07/25 00:46:33;;;;;;;14.35;6.70;;;;;;;23.33;87.82;100264.16;4937202;29;20035;-79
2023/07/25 00:48:59;;;;;;;14.48;6.50;;;;;;;23.36;88.30;100266.47;4937138;29;20047;-80
2023/07/25 00:51:25;;;;;;;14.02;5.85;;;;;;;23.39;88.28;100277.06;4937510;29;20020;-80
2023/07/25 00:53:51;;;;;;;12.70;6.32;;;;;;;23.42;89.96;100271.13;4936670;29;20499;-81
2023/07/25 00:56:18;;;;;;;15.32;6.78;;;;;;;23.46;90.02;100277.84;4936582;29;20519;-80
2023/07/25 00:58:46;;;;;;;18.02;6.93;;;;;;;23.47;89.63;100274.06;4936532;29;20123;-79
2023/07/25 01:01:11;;;;;;;12.88;7.07;;;;;;;23.49;88.51;100277.44;4936411;29;20055;-79
2023/07/25 01:03:38;;;;;;;15.90;6.53;;;;;;;23.50;89.38;100270.88;4936147;29;20020;-80
2023/07/25 01:06:05;;;;;;;10.35;6.68;;;;;;;23.58;88.29;100270.63;4935878;29;20027;-80
2023/07/25 01:08:31;;;;;;;8.75;5.72;;;;;;;23.56;87.99;100278.25;4932244;29;20512;-79
2023/07/25 01:10:57;;;;;;;10.32;6.22;;;;;;;23.45;88.24;100265.22;4933651;29;20103;-81
2023/07/25 01:13:23;;;;;;;14.60;6.50;;;;;;;23.51;88.87;100267.09;4938494;29;20012;-80
2023/07/25 01:15:53;;;;;;;9.32;5.40;;;;;;;23.53;88.65;100270.44;4941366;29;20046;-80
2023/07/25 01:18:19;;;;;;;11.10;6.15;;;;;;;23.49;88.74;100260.09;4934492;29;20036;-81
2023/07/25 01:20:47;;;;;;;11.73;5.72;;;;;;;23.50;88.92;100267.28;4934150;29;20066;-80
2023/07/25 01:23:13;;;;;;;7.82;5.75;;;;;;;23.47;88.83;100257.59;4932227;29;20059;-80
2023/07/25 01:25:39;;;;;;;7.97;5.90;;;;;;;23.46;89.00;100264.13;4933245;29;20028;-79
2023/07/25 01:28:04;;;;;;;13.15;6.00;;;;;;;23.52;89.19;100276.16;4916007;29;20110;-80
2023/07/25 01:30:30;;;;;;;13.15;5.60;;;;;;;23.48;88.99;100272.16;4933296;29;20032;-81
2023/07/25 01:32:56;;;;;;;13.18;6.75;;;;;;;23.50;88.24;100270.88;4933239;29;20028;-81
2023/07/25 01:35:21;;;;;;;11.88;6.15;;;;;;;23.59;89.37;100286.06;4933840;29;20047;-80
2023/07/25 01:37:47;;;;;;;10.13;6.03;;;;;;;23.56;88.70;100278.25;4939024;29;20019;-84
2023/07/25 01:40:12;;;;;;;12.88;5.88;;;;;;;23.52;88.77;100271.50;4952940;29;20039;-81
2023/07/25 01:42:38;;;;;;;11.05;5.43;;;;;;;23.57;88.46;100285.44;4931065;29;20044;-80
2023/07/25 01:45:04;;;;;;;17.73;6.47;;;;;;;23.45;88.65;100287.19;4929761;29;20048;-80
2023/07/25 01:47:29;;;;;;;12.65;6.03;;;;;;;23.49;88.83;100287.56;4929938;29;20050;-81
2023/07/25 01:49:55;;;;;;;11.55;6.07;;;;;;;23.45;88.37;100289.91;4929982;29;20040;-81
2023/07/25 01:52:21;;;;;;;10.52;6.20;;;;;;;23.30;87.92;100289.31;4930529;29;20114;-81
2023/07/25 01:54:48;;;;;;;11.32;6.43;;;;;;;23.28;88.76;100274.94;4930289;29;20122;-80
2023/07/25 01:57:14;;;;;;;8.98;5.95;;;;;;;23.21;88.70;100276.84;4931381;29;20038;-81
2023/07/25 01:59:39;;;;;;;7.63;5.35;;;;;;;23.24;89.05;100285.50;4930014;29;20040;-79
2023/07/25 02:02:05;;;;;;;12.15;7.03;;;;;;;23.23;88.96;100293.97;4929700;29;20058;-81
2023/07/25 02:04:31;;;;;;;11.52;5.35;;;;;;;23.26;88.65;100294.38;4929645;29;20138;-84
2023/07/25 02:06:56;;;;;;;23.23;7.05;;;;;;;23.22;87.59;100292.25;4930324;29;20043;-81
2023/07/25 02:09:21;;;;;;;27.70;7.85;;;;;;;23.21;88.73;100285.06;4931230;29;20090;-79
2023/07/25 02:11:47;;;;;;;17.50;6.82;;;;;;;23.17;88.39;100292.06;4932296;29;20040;-80
2023/07/25 02:14:12;;;;;;;17.23;7.13;;;;;;;23.14;88.30;100289.75;4933429;29;20477;-80
2023/07/25 02:16:39;;;;;;;10.43;5.72;;;;;;;23.06;87.20;100287.22;4933151;29;20071;-80
2023/07/25 02:19:05;;;;;;;22.30;6.22;;;;;;;23.12;87.32;100295.44;4933166;29;20023;-80
2023/07/25 02:21:31;;;;;;;12.63;6.28;;;;;;;23.04;86.91;100294.84;4933026;29;20058;-80
2023/07/25 02:23:57;;;;;;;20.02;7.25;;;;;;;23.06;87.42;100285.31;4932753;29;20031;-81
2023/07/25 02:26:22;;;;;;;24.23;6.97;;;;;;;23.07;87.37;100289.75;4933700;29;20032;-80
2023/07/25 02:28:48;;;;;;;14.13;6.72;;;;;;;23.07;87.43;100287.03;4940328;29;20082;-83
2023/07/25 02:31:13;;;;;;;17.35;6.72;;;;;;;23.08;87.20;100290.63;4955555;29;20051;-81
2023/07/25 02:33:39;;;;;;;15.55;5.57;;;;;;;22.98;86.16;100298.44;4956045;29;20038;-85
2023/07/25 02:36:05;;;;;;;16.55;6.10;;;;;;;23.00;86.44;100291.66;4956251;29;20086;-83
2023/07/25 02:38:31;;;;;;;58.05;13.93;;;;;;;22.99;86.35;100298.22;4941857;28;20519;-82
2023/07/25 02:40:56;;;;;;;45.53;9.38;;;;;;;22.94;85.87;100286.19;4932042;29;20035;-79
2023/07/25 02:43:24;;;;;;;19.20;7.20;;;;;;;23.04;85.28;100290.19;4931648;29;20036;-81
2023/07/25 02:45:51;;;;;;;10.27;6.70;;;;;;;23.07;85.36;100294.41;4931649;29;20102;-82
2023/07/25 02:48:16;;;;;;;14.10;7.03;;;;;;;23.05;85.88;100289.16;4931664;29;20040;-81
2023/07/25 02:50:42;;;;;;;12.88;6.65;;;;;;;23.00;85.75;100268.88;4897784;29;20631;-82
2023/07/25 02:53:07;;;;;;;22.35;7.78;;;;;;;22.98;85.92;100273.75;4931985;29;20027;-80
2023/07/25 02:55:33;;;;;;;14.68;6.85;;;;;;;23.02;85.12;100275.88;4931459;29;20031;-81
2023/07/25 02:57:58;;;;;;;13.40;7.28;;;;;;;23.05;85.74;100282.81;4932025;29;20086;-80
2023/07/25 03:00:24;;;;;;;16.98;6.85;;;;;;;22.95;84.22;100261.31;4931842;29;20066;-80
2023/07/25 03:02:50;;;;;;;28.00;7.80;;;;;;;23.04;83.86;100273.75;4932231;29;20031;-79
2023/07/25 03:05:15;;;;;;;24.30;7.45;;;;;;;22.99;83.89;100259.81;4931948;29;20027;-81
2023/07/25 03:07:41;;;;;;;27.50;6.90;;;;;;;23.08;83.29;100272.25;4934856;29;20559;-80
2023/07/25 03:10:07;;;;;;;36.13;8.68;;;;;;;23.02;83.94;100258.56;4932147;29;20114;-82
2023/07/25 03:12:33;;;;;;;27.13;7.90;;;;;;;23.07;84.13;100270.56;4932727;29;20028;-83
2023/07/25 03:14:58;;;;;;;23.70;7.13;;;;;;;23.12;83.23;100272.66;4932969;29;20171;-80
2023/07/25 03:17:24;;;;;;;23.80;6.93;;;;;;;23.11;82.66;100273.72;4933238;29;20038;-80
2023/07/25 03:19:49;;;;;;;24.73;7.53;;;;;;;23.08;82.38;100275.00;4934211;29;20027;-80
2023/07/25 03:22:18;;;;;;;33.42;7.80;;;;;;;22.99;82.06;100272.69;4955590;29;20176;-86
2023/07/25 03:24:43;;;;;;;17.17;7.47;;;;;;;22.96;82.99;100259.41;4956112;28;20062;-82
2023/07/25 03:27:09;;;;;;;45.67;8.90;;;;;;;23.06;83.14;100270.75;4946391;29;20027;-85
2023/07/25 03:29:35;;;;;;;20.83;7.78;;;;;;;23.08;82.78;100271.41;4937013;29;20034;-82
2023/07/25 03:32:00;;;;;;;38.80;8.38;;;;;;;23.14;82.66;100273.28;4939337;29;20102;-80
2023/07/25 03:34:25;;;;;;;26.20;7.80;;;;;;;23.11;82.78;100262.75;4939886;29;20031;-81
2023/07/25 03:36:51;;;;;;;21.73;9.68;;;;;;;23.11;83.31;100257.25;4938505;29;20507;-81
2023/07/25 03:39:16;;;;;;;49.85;9.50;;;;;;;23.04;83.53;100257.28;4936800;29;20031;-81
2023/07/25 03:41:42;;;;;;;37.75;7.93;;;;;;;23.07;83.06;100261.47;4936786;29;20020;-82
2023/07/25 03:44:08;;;;;;;19.85;8.48;;;;;;;23.16;83.74;100276.66;4936564;29;20122;-79
2023/07/25 03:46:33;;;;;;;28.88;9.63;;;;;;;23.16;83.59;100276.66;4935339;29;20412;-78
2023/07/25 03:48:59;;;;;;;24.70;8.60;;;;;;;23.08;84.20;100282.38;4935959;29;20042;-81
2023/07/25 03:51:24;;;;;;;29.15;8.15;;;;;;;22.98;85.44;100279.22;4935562;29;20038;-79
2023/07/25 03:53:49;;;;;;;25.90;8.50;;;;;;;22.89;85.54;100286.00;4935389;29;20035;-78
2023/07/25 03:56:15;;;;;;;26.10;10.07;;;;;;;22.89;86.32;100284.09;4935333;29;20035;-78
2023/07/25 03:58:40;;;;;;;66.85;11.60;;;;;;;23.02;85.32;100296.97;4932976;29;20563;-80
2023/07/25 04:01:06;;;;;;;42.80;10.25;;;;;;;23.02;86.75;100286.84;4932308;29;20130;-82
2023/07/25 04:03:31;;;;;;;38.90;10.00;;;;;;;23.05;87.62;100280.06;4931992;29;20036;-79
2023/07/25 04:05:56;;;;;;;64.97;12.18;;;;;;;23.10;88.48;100272.03;4932041;29;20098;-80
2023/07/25 04:08:22;;;;;;;40.50;9.05;;;;;;;23.25;87.62;100286.34;4932036;29;20105;-80
2023/07/25 04:10:47;;;;;;;35.88;9.70;;;;;;;23.34;86.67;100285.06;4940271;29;20102;-80
2023/07/25 04:13:13;;;;;;;42.78;19.17;;;;;;;23.45;86.65;100291.81;4942681;29;20036;-79
2023/07/25 04:15:38;;;;;;;32.03;11.77;;;;;;;23.51;85.63;100283.56;4934647;29;20035;-77
2023/07/25 04:18:03;;;;;;;25.33;12.85;;;;;;;23.60;84.42;100278.66;4931917;29;20572;-81
2023/07/25 04:20:29;;;;;;;48.75;10.85;;;;;;;23.70;82.77;100285.34;4931647;29;20357;-79
2023/07/25 04:22:54;;;;;;;47.78;11.07;;;;;;;23.76;83.10;100292.72;4931495;29;20066;-78
2023/07/25 04:25:20;;;;;;;40.42;10.70;;;;;;;23.84;82.35;100286.16;4931667;29;20153;-79
2023/07/25 04:27:45;;;;;;;38.72;11.13;;;;;;;23.88;82.71;100275.56;4931993;29;20035;-79
2023/07/25 04:30:11;;;;;;;39.25;9.48;;;;;;;24.03;82.45;100285.22;4933620;29;20039;-80
2023/07/25 04:32:36;;;;;;;47.55;11.00;;;;;;;24.10;81.12;100266.75;4934175;29;20031;-80
2023/07/25 04:35:02;;;;;;;58.17;11.40;;;;;;;24.18;81.55;100271.19;4934027;29;20106;-84
2023/07/25 04:37:27;;;;;;;39.75;9.80;;;;;;;24.30;82.07;100274.91;4933909;29;20111;-80
2023/07/25 04:39:52;;;;;;;40.30;9.02;;;;;;;24.41;84.54;100270.59;4933715;29;20035;-80
2023/07/25 04:42:18;;;;;;;25.02;8.60;;;;;;;24.40;83.64;100264.28;4933703;29;20035;-79
2023/07/25 04:44:43;;;;;;;28.70;9.18;;;;;;;24.55;81.19;100277.69;4933958;29;20038;-79
2023/07/25 04:47:09;;;;;;;47.85;10.63;;;;;;;24.64;82.39;100276.34;4933682;29;20032;-79
2023/07/25 04:49:34;;;;;;;56.85;9.20;;;;;;;24.68;81.76;100263.78;4933961;29;20047;-80
2023/07/25 04:52:00;;;;;;;33.00;8.13;;;;;;;24.70;77.11;100253.44;4939012;29;20042;-80
2023/07/25 04:54:25;;;;;;;17.02;6.75;;;;;;;24.83;78.18;100256.91;4933875;29;20032;-80
2023/07/25 04:56:50;;;;;;;36.50;8.02;;;;;;;24.83;75.51;100265.16;4934600;29;20032;-81
2023/07/25 04:59:16;;;;;;;20.10;7.45;;;;;;;24.87;72.92;100271.91;4934046;29;20034;-80
2023/07/25 05:01:41;;;;;;;25.25;8.85;;;;;;;25.02;75.03;100270.69;4933705;29;20059;-81
2023/07/25 05:04:07;;;;;;;44.28;9.70;;;;;;;25.01;73.28;100263.53;4933563;29;20028;-80
2023/07/25 05:06:32;;;;;;;20.50;7.78;;;;;;;25.12;71.90;100268.28;4932791;29;20067;-79
2023/07/25 05:08:57;;;;;;;78.68;12.02;;;;;;;25.20;69.71;100265.22;4933424;29;20028;-79
2023/07/25 05:11:23;;;;;;;51.45;12.02;;;;;;;25.28;69.32;100267.69;4933515;29;20059;-80
2023/07/25 05:13:48;;;;;;;24.50;8.50;;;;;;;25.23;69.34;100251.00;4932910;29;20055;-80
2023/07/25 05:16:14;;;;;;;42.50;7.15;;;;;;;25.36;70.54;100259.94;4933501;29;20035;-85
2023/07/25 05:18:39;;;;;;;67.40;13.63;;;;;;;25.40;68.76;100260.34;4932890;29;20033;-80
2023/07/25 05:21:05;;;;;;;23.65;6.45;;;;;;;25.41;66.88;100262.03;4933002;29;20073;-81
2023/07/25 05:23:30;;;;;;;22.42;6.90;;;;;;;25.38;66.31;100249.53;4931739;29;20035;-80
2023/07/25 05:25:56;;;;;;;30.88;8.85;;;;;;;25.40;65.93;100249.31;4932772;29;20032;-81
2023/07/25 05:28:21;;;;;;;54.50;9.27;;;;;;;25.39;66.00;100261.41;4932591;29;20032;-80
2023/07/25 05:30:47;;;;;;;19.20;6.10;;;;;;;25.33;66.35;100248.56;4932641;29;20035;-80
2023/07/25 05:33:12;;;;;;;27.60;7.53;;;;;;;25.40;66.90;100260.34;4933034;29;20063;-81
2023/07/25 05:35:38;;;;;;;18.73;6.22;;;;;;;25.42;66.82;100258.19;4931302;29;20035;-84
2023/07/25 05:38:07;;;;;;;18.30;6.20;;;;;;;25.50;68.40;100265.34;4933763;29;20036;-80
2023/07/25 05:40:33;;;;;;;10.05;5.00;;;;;;;25.52;65.43;100252.16;4935866;29;20050;-82
2023/07/25 05:42:59;;;;;;;16.02;5.72;;;;;;;25.50;65.19;100248.81;4935874;29;20032;-80
2023/07/25 05:45:24;;;;;;;14.48;5.30;;;;;;;25.48;65.19;100251.75;4935896;29;20042;-80
2023/07/25 05:47:50;;;;;;;29.20;6.50;;;;;;;25.51;65.99;100251.31;4934684;29;20028;-83
2023/07/25 05:50:15;;;;;;;14.85;5.63;;;;;;;25.50;67.53;100251.56;4918085;29;20036;-81
2023/07/25 05:52:41;;;;;;;32.00;6.88;;;;;;;25.55;66.72;100247.03;4935297;29;20114;-81
2023/07/25 05:55:06;;;;;;;30.92;6.78;;;;;;;25.70;66.25;100253.00;4935723;29;20050;-82
2023/07/25 05:57:32;;;;;;;17.50;5.85;;;;;;;25.73;67.75;100251.69;4901943;29;20078;-82
2023/07/25 05:59:57;;;;;;;25.80;6.43;;;;;;;25.77;67.36;100248.25;4937756;29;20124;-81
2023/07/25 06:02:23;;;;;;;25.08;6.85;;;;;;;25.74;67.80;100232.19;4939626;29;20055;-82
2023/07/25 06:04:48;;;;;;;13.32;6.28;;;;;;;25.79;68.26;100232.31;4935435;29;20023;-82
2023/07/25 06:07:14;;;;;;;18.70;6.68;;;;;;;25.90;68.42;100244.47;4935136;29;20038;-82
2023/07/25 06:09:40;;;;;;;12.52;6.15;;;;;;;25.86;69.63;100232.22;4935370;29;20032;-85
2023/07/25 06:12:10;;;;;;;12.10;6.22;;;;;;;25.86;69.78;100226.72;4934283;29;20034;-83
2023/07/25 06:14:36;;;;;;;27.48;6.05;;;;;;;25.90;72.58;100250.78;4935332;29;20036;-84
2023/07/25 06:17:02;;;;;;;26.88;7.25;;;;;;;25.86;73.24;100235.81;4935721;29;20035;-84
2023/07/25 06:19:28;;;;;;;12.70;5.72;;;;;;;25.95;74.31;100247.34;4939646;29;20030;-82
2023/07/25 06:21:55;;;;;;;14.60;5.72;;;;;;;25.86;75.19;100219.28;4951651;29;20034;-84
2023/07/25 06:24:20;;;;;;;13.02;5.97;;;;;;;25.98;74.11;100216.56;4939124;29;20039;-84
2023/07/25 06:26:46;;;;;;;15.80;6.15;;;;;;;26.11;74.24;100232.06;4935352;29;20497;-85
2023/07/25 06:29:11;;;;;;;20.33;5.82;;;;;;;26.09;75.16;100224.00;4935390;29;20495;-85
2023/07/25 06:31:37;;;;;;;11.30;5.78;;;;;;;26.10;77.14;100213.84;4935552;29;20024;-85
2023/07/25 06:34:03;;;;;;;28.60;6.95;;;;;;;26.15;77.85;100214.81;4935351;29;20034;-84
2023/07/25 06:36:28;;;;;;;19.98;5.70;;;;;;;26.06;77.60;100187.81;4935581;29;20107;-85
2023/07/25 06:38:54;;;;;;;12.48;6.28;;;;;;;26.25;77.35;100197.72;4936280;29;20046;-88
2023/07/25 06:41:19;;;;;;;15.82;6.60;;;;;;;26.12;76.76;100168.41;4937198;29;20031;-84
2023/07/25 06:43:45;;;;;;;19.30;7.78;;;;;;;26.18;77.67;100181.28;4935708;29;20051;-86
2023/07/25 06:46:10;;;;;;;27.38;6.75;;;;;;;26.32;79.56;100182.75;4943640;29;20088;-86
2023/07/25 06:48:35;;;;;;;16.77;6.32;;;;;;;26.42;80.05;100184.94;4923337;29;20051;-86
2023/07/25 06:51:01;;;;;;;16.25;6.75;;;;;;;26.53;80.89;100192.34;4931806;29;20024;-85
2023/07/25 06:53:26;;;;;;;20.88;6.85;;;;;;;26.58;80.30;100189.72;4917914;29;20465;-86
2023/07/25 06:55:52;;;;;;;18.38;6.00;;;;;;;26.52;79.95;100174.13;4918691;29;20504;-86
2023/07/25 06:58:17;;;;;;;19.02;6.85;;;;;;;26.62;79.55;100182.63;4918755;29;20043;-86
2023/07/25 07:00:45;;;;;;;20.33;6.97;;;;;;;26.72;75.93;100188.41;4923714;29;20043;-88
2023/07/25 07:03:11;;;;;;;24.25;5.93;;;;;;;26.69;72.67;100175.09;4938574;29;20035;-87
2023/07/25 07:05:36;;;;;;;25.65;6.47;;;;;;;26.73;70.66;100176.25;4936873;29;20473;-88
2023/07/25 07:08:02;;;;;;;20.30;7.18;;;;;;;26.87;70.18;100191.53;4939420;29;20038;-86
2023/07/25 07:10:28;;;;;;;14.23;6.32;;;;;;;26.81;66.83;100181.47;4947830;28;20027;-87
2023/07/25 07:12:53;;;;;;;20.63;6.38;;;;;;;26.81;66.29;100175.94;4960697;28;20037;-88
2023/07/25 07:15:24;;;;;;;32.92;8.57;;;;;;;26.95;66.20;100177.38;4962821;28;20019;-88
2023/07/25 07:17:51;;;;;;;18.75;6.82;;;;;;;26.97;66.98;100174.38;4959186;28;20627;-90
2023/07/25 07:20:17;;;;;;;33.22;7.55;;;;;;;27.11;64.12;100191.50;4962482;28;20039;-87
2023/07/25 07:22:42;;;;;;;18.92;7.25;;;;;;;27.14;62.96;100182.72;4971910;28;20174;-89
2023/07/25 07:25:08;;;;;;;20.35;8.48;;;;;;;27.22;63.36;100198.91;4974036;28;20027;-87
2023/07/25 07:27:33;;;;;;;22.42;5.85;;;;;;;27.16;62.81;100194.34;4975056;28;20098;-89
2023/07/25 07:29:59;;;;;;;20.20;7.90;;;;;;;27.21;62.96;100191.72;4973882;28;20026;-96
2023/07/25 07:32:25;;;;;;;35.25;7.72;;;;;;;27.14;62.52;100171.69;4959299;28;20039;-95
2023/07/25 07:34:50;;;;;;;18.95;7.22;;;;;;;27.21;63.24;100180.69;4941121;28;20083;-84
2023/07/25 07:37:16;;;;;;;23.75;7.35;;;;;;;27.25;63.36;100192.91;4949662;28;20027;-89
2023/07/25 07:39:41;;;;;;;39.33;8.02;;;;;;;27.18;62.87;100176.50;4955160;28;20055;-90
2023/07/25 07:42:10;;;;;;;14.73;6.85;;;;;;;27.11;62.44;100174.94;4958854;28;20016;-88
2023/07/25 07:44:43;;;;;;;24.13;6.63;;;;;;;27.29;62.77;100188.56;4958382;28;20093;-89
2023/07/25 07:47:11;;;;;;;26.83;7.20;;;;;;;27.31;62.98;100180.88;4957360;28;20072;-89
2023/07/25 07:49:39;;;;;;;63.05;12.85;;;;;;;27.37;62.70;100193.69;4940648;28;20044;-94
2023/07/25 07:52:05;;;;;;;20.30;7.35;;;;;;;27.33;64.43;100184.25;4949198;28;20054;-82
2023/07/25 07:54:32;;;;;;;32.20;8.02;;;;;;;27.48;64.93;100192.88;4958004;28;20048;-89
2023/07/25 07:56:58;;;;;;;29.42;8.15;;;;;;;27.51;64.44;100182.19;4953942;28;20085;-88
2023/07/25 07:59:23;;;;;;;13.07;6.32;;;;;;;27.70;63.38;100188.34;4954980;29;20020;-86
2023/07/25 08:01:49;;;;;;;31.80;8.38;;;;;;;27.58;64.24;100168.22;4951826;29;20108;-83
2023/07/25 08:04:14;;;;;;;14.25;5.90;;;;;;;27.64;64.13;100160.84;4950612;29;20047;-87
2023/07/25 08:06:39;;;;;;;9.20;4.85;;;;;;;27.79;61.61;100189.63;4968268;28;20038;-82
2023/07/25 08:09:05;;;;;;;23.38;5.88;;;;;;;27.84;61.39;100198.00;4955985;28;20528;-85
2023/07/25 08:11:31;;;;;;;13.25;5.95;;;;;;;27.75;61.34;100184.81;4953479;29;20046;-83
2023/07/25 08:13:56;;;;;;;21.75;6.68;;;;;;;27.73;61.46;100182.31;4963051;28;20026;-86
2023/07/25 08:16:22;;;;;;;19.85;7.85;;;;;;;27.85;61.59;100199.69;4976163;28;20059;-91
2023/07/25 08:18:47;;;;;;;14.88;5.63;;;;;;;27.95;61.54;100193.53;4980823;28;20023;-90
2023/07/25 08:21:13;;;;;;;14.10;6.20;;;;;;;27.98;62.20;100180.00;4974338;28;20027;-91
2023/07/25 08:23:38;;;;;;;22.30;8.10;;;;;;;28.04;62.21;100169.91;4940281;29;20031;-90
2023/07/25 08:26:11;;;;;;;16.17;6.65;;;;;;;28.03;62.18;100168.22;4958998;29;20027;-95
2023/07/25 08:28:37;;;;;;;22.83;7.22;;;;;;;28.09;62.47;100165.31;4939148;29;20118;-81
2023/07/25 08:31:05;;;;;;;16.40;7.28;;;;;;;28.07;62.27;100148.13;4955441;29;20520;-90
2023/07/25 08:33:42;;;;;;;24.83;7.60;;;;;;;28.14;63.18;100153.50;4941094;29;20031;-86
2023/07/25 08:36:08;;;;;;;8.80;6.25;;;;;;;28.19;62.72;100133.41;4939449;29;20121;-88
2023/07/25 08:38:34;;;;;;;21.70;7.05;;;;;;;28.17;63.01;100132.78;4955895;29;20127;-87
2023/07/25 08:41:09;;;;;;;19.55;7.03;;;;;;;28.24;62.32;100131.53;4938881;29;20051;-87
2023/07/25 08:43:37;;;;;;;22.33;7.18;;;;;;;28.12;62.26;100129.94;4917424;29;20040;-89
2023/07/25 08:46:07;;;;;;;16.38;6.22;;;;;;;28.22;61.91;100139.28;4917969;29;20025;-88
2023/07/25 08:48:36;;;;;;;18.10;7.43;;;;;;;28.07;61.17;100120.47;4935437;29;20066;-86
2023/07/25 08:51:05;;;;;;;18.77;7.03;;;;;;;28.13;61.96;100124.19;4937890;29;20127;-86
2023/07/25 08:53:32;;;;;;;28.65;7.65;;;;;;;28.13;60.93;100131.63;4938896;29;20024;-88
2023/07/25 08:56:00;;;;;;;16.92;7.80;;;;;;;28.25;61.44;100135.16;4938105;28;20182;-85
2023/07/25 08:58:27;;;;;;;21.10;6.60;;;;;;;28.39;61.41;100139.25;4946500;28;20024;-87
2023/07/25 09:00:53;;;;;;;20.60;5.93;;;;;;;28.45;60.34;100135.47;4938549;29;20056;-89
2023/07/25 09:03:19;;;;;;;54.67;11.02;;;;;;;28.46;59.52;100134.38;4929000;29;20032;-90
2023/07/25 09:05:48;;;;;;;32.22;7.15;;;;;;;28.47;60.17;100130.53;4918612;29;20039;-93
2023/07/25 09:08:16;;;;;;;28.27;7.03;;;;;;;28.40;60.25;100125.16;4918400;29;20421;-90
2023/07/25 09:10:44;;;;;;;12.77;6.15;;;;;;;28.35;59.94;100138.06;4918097;29;20767;-87
2023/07/25 09:13:10;;;;;;;18.33;6.88;;;;;;;28.44;60.08;100147.63;4937029;29;20118;-87
2023/07/25 09:15:35;;;;;;;15.43;6.55;;;;;;;28.34;60.15;100119.81;4938446;29;20070;-92
2023/07/25 09:18:01;;;;;;;21.00;7.45;;;;;;;28.39;60.50;100125.41;4937278;29;20038;-86
2023/07/25 09:20:26;;;;;;;19.02;6.90;;;;;;;28.51;60.72;100129.75;4935705;29;20424;-85
2023/07/25 09:22:52;;;;;;;18.77;7.05;;;;;;;28.43;61.20;100121.06;4940589;29;20479;-86
2023/07/25 09:25:18;;;;;;;24.08;6.55;;;;;;;28.53;61.43;100129.50;4938023;29;20032;-89
2023/07/25 09:27:46;;;;;;;21.23;7.20;;;;;;;28.48;61.54;100123.88;4935370;29;20035;-89
2023/07/25 09:30:13;;;;;;;14.40;7.22;;;;;;;28.58;61.18;100137.88;4935148;29;20036;-89
2023/07/25 09:32:44;;;;;;;16.73;7.32;;;;;;;28.69;61.79;100142.50;4933866;29;20078;-90
2023/07/25 09:35:11;;;;;;;12.73;6.13;;;;;;;28.75;62.45;100138.69;4934407;29;20127;-86
2023/07/25 09:37:37;;;;;;;17.27;6.63;;;;;;;28.84;62.96;100134.41;4935845;29;20096;-91
2023/07/25 09:40:08;;;;;;;44.05;9.52;;;;;;;29.01;62.45;100137.13;4934440;29;20401;-86
2023/07/25 09:42:39;;;;;;;25.87;7.07;;;;;;;29.06;60.76;100135.25;4933400;29;20052;-86
2023/07/25 09:45:08;;;;;;;17.13;6.85;;;;;;;29.12;61.62;100128.69;4932658;29;20039;-86
2023/07/25 09:47:35;;;;;;;18.98;7.57;;;;;;;29.24;61.08;100136.03;4933419;29;20516;-91
2023/07/25 09:50:03;;;;;;;12.93;5.85;;;;;;;29.22;61.26;100121.59;4934892;29;20112;-87
2023/07/25 09:52:41;;;;;;;14.02;6.28;;;;;;;29.28;61.08;100139.97;4932375;29;20445;-85
2023/07/25 09:55:08;;;;;;;14.90;6.00;;;;;;;29.13;61.03;100129.53;4942206;29;20051;-88
2023/07/25 09:57:35;;;;;;;14.13;6.18;;;;;;;29.20;60.71;100135.72;4933798;29;20079;-84
2023/07/25 10:00:03;;;;;;;30.17;6.80;;;;;;;29.21;61.44;100139.31;4911974;29;20119;-88
2023/07/25 10:02:28;;;;;;;15.60;6.13;;;;;;;29.25;62.11;100133.03;4930135;29;20059;-86
2023/07/25 10:04:55;;;;;;;14.82;5.97;;;;;;;29.23;60.98;100124.13;4930573;29;20035;-86
2023/07/25 10:07:24;;;;;;;18.73;6.65;;;;;;;29.34;60.77;100127.88;4929772;29;20047;-88
2023/07/25 10:09:52;;;;;;;15.10;6.38;;;;;;;29.44;61.39;100109.44;4914536;29;20046;-84
2023/07/25 10:12:17;;;;;;;12.35;5.38;;;;;;;29.61;58.79;100121.25;4930029;29;20476;-85
2023/07/25 10:14:43;;;;;;;13.82;6.53;;;;;;;29.68;58.27;100121.03;4928695;28;20044;-84
2023/07/25 10:17:09;;;;;;;22.50;6.93;;;;;;;29.73;58.22;100123.00;4913568;29;20051;-86
2023/07/25 10:19:49;;;;;;;16.00;5.53;;;;;;;29.74;56.62;100092.25;4930865;29;20063;-86
2023/07/25 10:22:15;;;;;;;27.35;6.43;;;;;;;29.88;57.14;100112.94;4931239;29;20036;-87
2023/07/25 10:24:41;;;;;;;45.90;8.38;;;;;;;29.92;56.30;100103.00;4932224;29;20063;-86
2023/07/25 10:27:11;;;;;;;11.00;5.35;;;;;;;29.77;56.30;100069.56;4932631;29;20036;-85
2023/07/25 10:29:44;;;;;;;12.35;5.90;;;;;;;30.02;56.67;100082.84;4932358;29;20167;-81
2023/07/25 10:32:13;;;;;;;13.13;5.78;;;;;;;30.01;55.46;100075.59;4932299;29;20039;-86
2023/07/25 10:35:02;;;;;;;18.67;6.22;;;;;;;30.21;55.30;100078.56;4931846;29;20194;-86
2023/07/25 10:37:35;;;;;;;15.93;6.65;;;;;;;30.20;54.72;100069.38;4931182;29;20023;-85
2023/07/25 10:40:23;;;;;;;22.88;7.50;;;;;;;30.21;54.57;100079.34;4945858;28;20102;-85
2023/07/25 10:42:58;;;;;;;10.93;4.78;;;;;;;30.24;53.84;100081.59;4941348;28;20047;-82
2023/07/25 10:45:29;;;;;;;17.95;5.95;;;;;;;30.34;53.64;100091.09;4948251;28;20036;-84
2023/07/25 10:47:59;;;;;;;14.68;6.15;;;;;;;30.17;53.01;100092.13;4948996;28;20672;-83
2023/07/25 10:50:27;;;;;;;25.75;6.22;;;;;;;30.28;52.97;100106.03;4948337;28;20078;-83
2023/07/25 10:52:52;;;;;;;12.90;5.50;;;;;;;30.32;54.56;100105.25;4948365;28;20054;-83
2023/07/25 10:55:18;;;;;;;19.52;6.80;;;;;;;30.40;54.64;100088.13;4948322;28;20504;-85
2023/07/25 10:58:08;;;;;;;14.52;7.20;;;;;;;30.38;54.02;100087.53;4928770;29;20433;-84
2023/07/25 11:00:35;;;;;;;10.82;6.50;;;;;;;30.32;55.30;100083.06;4910064;29;20953;-83
2023/07/25 11:03:29;;;;;;;22.15;8.52;;;;;;;30.52;55.71;100087.94;4910083;29;20560;-85
2023/07/25 11:06:06;;;;;;;34.33;7.60;;;;;;;30.55;54.53;100087.41;4910082;29;20852;-83
2023/07/25 11:08:38;;;;;;;19.17;7.45;;;;;;;30.67;55.49;100079.69;4910115;29;20035;-84
2023/07/25 11:11:08;;;;;;;17.45;7.18;;;;;;;30.64;56.15;100075.50;4909942;29;20044;-83
2023/07/25 11:13:36;;;;;;;13.70;6.80;;;;;;;30.57;55.54;100080.47;4910063;29;20040;-85